sensor_id;sensor_type;location;lat;lon;timestamp;P1;durP1;ratioP1;P2;durP2;ratioP2
22441;SDS011;11388;54.456;9.752;2022-10-04T00:09:53;8.18;;;2.28;;
22441;SDS011;11388;54.456;9.752;2022-10-04T00:12:49;6.85;;;2.10;;
22441;SDS011;11388;54.456;9.752;2022-10-04T00:15:39;6.88;;;2.47;;
22441;SDS011;11388;54.456;9.752;2022-10-04T00:18:20;7.32;;;2.20;;
22441;SDS011;11388;54.456;9.752;2022-10-04T00:31:18;8.77;;;2.05;;
22441;SDS011;11388;54.456;9.752;2022-10-04T00:54:17;4.47;;;1.50;;
22441;SDS011;11388;54.456;9.752;2022-10-04T01:07:48;5.72;;;1.42;;
22441;SDS011;11388;54.456;9.752;2022-10-04T01:17:23;5.65;;;1.80;;
22441;SDS011;11388;54.456;9.752;2022-10-04T02:08:16;11.68;;;2.95;;
22441;SDS011;11388;54.456;9.752;2022-10-04T02:11:14;8.38;;;2.50;;
22441;SDS011;11388;54.456;9.752;2022-10-04T02:14:08;4.85;;;2.17;;
22441;SDS011;11388;54.456;9.752;2022-10-04T03:14:11;5.50;;;2.63;;
22441;SDS011;11388;54.456;9.752;2022-10-04T04:15:54;13.43;;;6.97;;
22441;SDS011;11388;54.456;9.752;2022-10-04T04:22:51;8.43;;;5.25;;
22441;SDS011;11388;54.456;9.752;2022-10-04T04:25:23;10.25;;;5.57;;
22441;SDS011;11388;54.456;9.752;2022-10-04T04:30:43;9.45;;;5.22;;
22441;SDS011;11388;54.456;9.752;2022-10-04T13:57:50;6.18;;;2.10;;
22441;SDS011;11388;54.456;9.752;2022-10-04T14:20:56;5.28;;;2.10;;
22441;SDS011;11388;54.456;9.752;2022-10-04T20:15:09;10.68;;;4.38;;
22441;SDS011;11388;54.456;9.752;2022-10-04T20:17:40;9.07;;;4.30;;
22441;SDS011;11388;54.456;9.752;2022-10-04T20:20:13;8.80;;;4.00;;
22441;SDS011;11388;54.456;9.752;2022-10-04T20:23:05;10.32;;;4.32;;
22441;SDS011;11388;54.456;9.752;2022-10-04T20:34:49;7.75;;;3.90;;
22441;SDS011;11388;54.456;9.752;2022-10-04T20:37:13;7.47;;;4.03;;
22441;SDS011;11388;54.456;9.752;2022-10-04T20:42:32;9.10;;;4.00;;
22441;SDS011;11388;54.456;9.752;2022-10-04T20:47:44;7.70;;;4.00;;
22441;SDS011;11388;54.456;9.752;2022-10-04T20:50:14;7.30;;;4.03;;
22441;SDS011;11388;54.456;9.752;2022-10-04T20:52:46;10.05;;;4.22;;
22441;SDS011;11388;54.456;9.752;2022-10-04T20:55:21;8.90;;;4.47;;
22441;SDS011;11388;54.456;9.752;2022-10-04T20:57:53;7.45;;;3.92;;
22441;SDS011;11388;54.456;9.752;2022-10-04T21:00:23;9.52;;;3.90;;
22441;SDS011;11388;54.456;9.752;2022-10-04T21:06:00;7.68;;;3.70;;
22441;SDS011;11388;54.456;9.752;2022-10-04T21:08:26;10.88;;;4.15;;
22441;SDS011;11388;54.456;9.752;2022-10-04T21:11:10;8.75;;;4.40;;
22441;SDS011;11388;54.456;9.752;2022-10-04T21:17:01;7.72;;;4.07;;
22441;SDS011;11388;54.456;9.752;2022-10-04T21:19:50;11.00;;;4.72;;
22441;SDS011;11388;54.456;9.752;2022-10-04T21:29:20;9.23;;;4.20;;
22441;SDS011;11388;54.456;9.752;2022-10-04T21:31:56;7.38;;;4.03;;
22441;SDS011;11388;54.456;9.752;2022-10-04T21:34:27;9.50;;;4.22;;
22441;SDS011;11388;54.456;9.752;2022-10-04T21:36:56;10.75;;;4.15;;
22441;SDS011;11388;54.456;9.752;2022-10-04T21:39:25;6.95;;;4.30;;
22441;SDS011;11388;54.456;9.752;2022-10-04T21:41:54;9.45;;;4.45;;
22441;SDS011;11388;54.456;9.752;2022-10-04T21:44:20;9.23;;;4.35;;
22441;SDS011;11388;54.456;9.752;2022-10-04T21:46:50;8.40;;;4.35;;
22441;SDS011;11388;54.456;9.752;2022-10-04T21:49:18;7.93;;;4.20;;
22441;SDS011;11388;54.456;9.752;2022-10-04T21:58:39;7.68;;;4.13;;
22441;SDS011;11388;54.456;9.752;2022-10-04T22:01:05;7.72;;;3.97;;
22441;SDS011;11388;54.456;9.752;2022-10-04T22:03:33;10.27;;;4.50;;
22441;SDS011;11388;54.456;9.752;2022-10-04T22:09:41;10.85;;;4.70;;
22441;SDS011;11388;54.456;9.752;2022-10-04T22:12:20;7.28;;;4.00;;
22441;SDS011;11388;54.456;9.752;2022-10-04T22:17:43;9.05;;;4.50;;
22441;SDS011;11388;54.456;9.752;2022-10-04T22:20:14;7.45;;;4.32;;
22441;SDS011;11388;54.456;9.752;2022-10-04T22:22:53;13.85;;;4.10;;
22441;SDS011;11388;54.456;9.752;2022-10-04T22:28:12;6.82;;;3.85;;
22441;SDS011;11388;54.456;9.752;2022-10-04T22:30:44;8.73;;;4.30;;
22441;SDS011;11388;54.456;9.752;2022-10-04T22:38:55;11.98;;;4.15;;
22441;SDS011;11388;54.456;9.752;2022-10-04T22:41:29;10.98;;;4.78;;
22441;SDS011;11388;54.456;9.752;2022-10-04T22:43:58;9.45;;;4.07;;
22441;SDS011;11388;54.456;9.752;2022-10-04T22:46:36;9.77;;;4.15;;
22441;SDS011;11388;54.456;9.752;2022-10-04T22:49:14;8.95;;;4.43;;
22441;SDS011;11388;54.456;9.752;2022-10-04T22:55:04;11.55;;;3.90;;
22441;SDS011;11388;54.456;9.752;2022-10-04T22:57:40;7.72;;;4.03;;
22441;SDS011;11388;54.456;9.752;2022-10-04T23:00:14;6.45;;;3.92;;
22441;SDS011;11388;54.456;9.752;2022-10-04T23:02:42;9.23;;;4.47;;
22441;SDS011;11388;54.456;9.752;2022-10-04T23:05:15;9.65;;;4.40;;
22441;SDS011;11388;54.456;9.752;2022-10-04T23:07:45;7.40;;;4.22;;
22441;SDS011;11388;54.456;9.752;2022-10-04T23:10:15;6.50;;;4.10;;
22441;SDS011;11388;54.456;9.752;2022-10-04T23:12:51;7.25;;;4.22;;
22441;SDS011;11388;54.456;9.752;2022-10-04T23:15:20;8.10;;;4.63;;
22441;SDS011;11388;54.456;9.752;2022-10-04T23:17:52;8.68;;;4.70;;
22441;SDS011;11388;54.456;9.752;2022-10-04T23:20:23;7.18;;;4.30;;
22441;SDS011;11388;54.456;9.752;2022-10-04T23:22:59;8.82;;;4.57;;
22441;SDS011;11388;54.456;9.752;2022-10-04T23:25:33;6.80;;;4.43;;
22441;SDS011;11388;54.456;9.752;2022-10-04T23:28:11;7.97;;;4.45;;
22441;SDS011;11388;54.456;9.752;2022-10-04T23:30:41;10.45;;;4.57;;
22441;SDS011;11388;54.456;9.752;2022-10-04T23:33:20;8.10;;;4.05;;
22441;SDS011;11388;54.456;9.752;2022-10-04T23:35:49;9.52;;;4.57;;
22441;SDS011;11388;54.456;9.752;2022-10-04T23:38:18;8.25;;;4.57;;
22441;SDS011;11388;54.456;9.752;2022-10-04T23:40:52;8.32;;;4.10;;
22441;SDS011;11388;54.456;9.752;2022-10-04T23:43:21;8.27;;;4.03;;
22441;SDS011;11388;54.456;9.752;2022-10-04T23:45:58;6.80;;;4.15;;
22441;SDS011;11388;54.456;9.752;2022-10-04T23:48:28;6.90;;;4.30;;
22441;SDS011;11388;54.456;9.752;2022-10-04T23:54:19;7.78;;;4.35;;
22441;SDS011;11388;54.456;9.752;2022-10-04T23:56:48;8.52;;;4.75;;
22441;SDS011;11388;54.456;9.752;2022-10-04T23:59:16;7.75;;;5.00;;
